»·PEaware :: N12559 KAVX-KSAN

N12559 :: KAVX-KSAN

FLIGHT INFORMATION

Flight Status: Arrived
Operator: Privately registered:
United States
More flights under this callsign
Pilot: Joshua S. (14624)
Aircraft: CESSNA 172 SKYHAWK
(C172)
More flights by this aircraft type
Origin: KAVX Catalina
United States
Destination: KSAN San Diego Intl-Lindbergh
United States
More flights between these airports :: More routes between these airports
Route: +SXC V208 OCN V23 MZB
File this flight plan on PilotEdge
Remarks: I8 test
Altitude:
(Current/Filed)
4,000ft
Speed:
(Current/Filed)
110kts
Departed: 10-Dec-17 02:29 PM
Arrived: 10-Dec-17 03:34 PM
Distance/Time
Traveled:
74nm/1:05
Distance/Time
To Go:
Arrived

Flight Plot

Page will automatically refresh every two minutes.


Map Options




Map Legend


Flown Route
Filed Route
Departure Airport
Arrival Airport
Navaid (VOR, NDB)
Fix

Horizontal Profiles

Position Reports

Time Latitude Longitude Heading Altitude Ground
Speed
10-Dec-17 14:24 33.403478 -118.415028 324 1605ft 0kts
10-Dec-17 14:25 33.403478 -118.415028 324 1605ft 0kts
10-Dec-17 14:26 33.403478 -118.415028 324 1605ft 0kts
10-Dec-17 14:27 33.403478 -118.415028 324 1605ft 0kts
10-Dec-17 14:28 33.403478 -118.415028 324 1605ft 0kts
10-Dec-17 14:29 33.403478 -118.415028 324 1605ft 0kts
10-Dec-17 14:30 33.403478 -118.415028 324 1605ft 0kts
10-Dec-17 14:31 33.403730 -118.416931 290 1605ft 1kts
10-Dec-17 14:32 33.403040 -118.418361 235 1605ft 10kts
10-Dec-17 14:33 33.402349 -118.419526 241 1605ft 0kts
10-Dec-17 14:34 33.408448 -118.409840 54 1865ft 76kts
10-Dec-17 14:35 33.417839 -118.388244 103 2818ft 75kts
10-Dec-17 14:36 33.401078 -118.387611 229 3695ft 79kts
10-Dec-17 14:37 33.385892 -118.406824 224 4552ft 80kts
10-Dec-17 14:38 33.372258 -118.394184 100 5181ft 103kts
10-Dec-17 14:39 33.366404 -118.352425 99 4939ft 129kts
10-Dec-17 14:40 33.360817 -118.309922 99 4940ft 129kts
10-Dec-17 14:41 33.355407 -118.268625 99 4937ft 119kts
10-Dec-17 14:42 33.350308 -118.229879 99 4939ft 117kts
10-Dec-17 14:43 33.345231 -118.191374 99 4939ft 117kts
10-Dec-17 14:44 33.340249 -118.153592 99 4939ft 117kts
10-Dec-17 14:45 33.335174 -118.115192 99 4939ft 117kts
10-Dec-17 14:46 33.330066 -118.076630 99 4939ft 117kts
10-Dec-17 14:47 33.324898 -118.037709 99 4891ft 117kts
10-Dec-17 14:48 33.319763 -117.999132 99 4891ft 117kts
10-Dec-17 14:49 33.314624 -117.960624 99 4891ft 117kts
10-Dec-17 14:50 33.309479 -117.922156 99 4891ft 117kts
10-Dec-17 14:51 33.304320 -117.883682 99 4891ft 117kts
10-Dec-17 14:52 33.299160 -117.845290 99 4891ft 117kts
10-Dec-17 14:53 33.293962 -117.806717 99 4891ft 117kts
10-Dec-17 14:54 33.288768 -117.768257 99 4891ft 117kts
10-Dec-17 14:55 33.283261 -117.729925 100 4891ft 117kts
10-Dec-17 14:56 33.277471 -117.691609 100 4891ft 117kts
10-Dec-17 14:57 33.271684 -117.653245 100 4891ft 117kts
10-Dec-17 14:58 33.265892 -117.614913 100 4891ft 117kts
10-Dec-17 14:59 33.259730 -117.578323 119 4887ft 117kts
10-Dec-17 15:00 33.231826 -117.559090 150 4891ft 117kts
10-Dec-17 15:01 33.204551 -117.539362 148 4891ft 116kts
10-Dec-17 15:02 33.177003 -117.518849 147 4891ft 116kts
10-Dec-17 15:03 33.149554 -117.498344 147 4891ft 116kts
10-Dec-17 15:04 33.122075 -117.477822 147 4891ft 116kts
10-Dec-17 15:05 33.094532 -117.457266 147 4891ft 116kts
10-Dec-17 15:06 33.067102 -117.436809 147 4891ft 116kts
10-Dec-17 15:07 33.039573 -117.416294 147 4891ft 116kts
10-Dec-17 15:08 33.012021 -117.395777 147 4891ft 116kts
10-Dec-17 15:09 32.984522 -117.375315 147 4891ft 116kts
10-Dec-17 15:10 32.957015 -117.354862 147 4891ft 116kts
10-Dec-17 15:11 32.929594 -117.334489 148 4891ft 116kts
10-Dec-17 15:12 32.902120 -117.314090 148 4891ft 116kts
10-Dec-17 15:13 32.874641 -117.293704 148 4891ft 116kts
10-Dec-17 15:14 32.847077 -117.273269 148 4891ft 116kts
10-Dec-17 15:15 32.823727 -117.248668 104 4890ft 116kts
10-Dec-17 15:16 32.816339 -117.211161 103 4891ft 116kts
10-Dec-17 15:17 32.808978 -117.173607 103 4891ft 116kts
10-Dec-17 15:19 32.801616 -117.136021 103 4891ft 116kts
10-Dec-17 15:20 32.794243 -117.098359 103 4891ft 116kts
10-Dec-17 15:21 32.786899 -117.060817 103 4891ft 116kts
10-Dec-17 15:22 32.779552 -117.023230 103 4891ft 116kts
10-Dec-17 15:23 32.772211 -116.985654 103 4891ft 116kts
10-Dec-17 15:24 32.764875 -116.948080 103 4891ft 116kts
10-Dec-17 15:25 32.757537 -116.910473 103 4891ft 116kts
10-Dec-17 15:26 32.739686 -116.883886 171 4791ft 122kts
10-Dec-17 15:27 32.706080 -116.877600 171 3991ft 121kts
10-Dec-17 15:28 32.673200 -116.871439 171 3189ft 119kts
10-Dec-17 15:29 32.642312 -116.865958 184 3535ft 109kts
10-Dec-17 15:30 32.634640 -116.897875 275 3802ft 123kts
10-Dec-17 15:31 32.654941 -116.930448 310 3799ft 124kts
10-Dec-17 15:32 32.677056 -116.961993 303 3795ft 124kts
10-Dec-17 15:33 32.687028 -116.998703 286 3798ft 110kts
10-Dec-17 15:34 32.696166 -117.036098 286 3257ft 122kts
10-Dec-17 15:35 32.704148 -117.068880 286 2598ft 83kts
10-Dec-17 15:36 32.711455 -117.098856 286 1621ft 95kts
10-Dec-17 15:37 32.719093 -117.129978 287 818ft 93kts
10-Dec-17 15:38 32.725333 -117.156035 285 471ft 79kts
10-Dec-17 15:39 32.731395 -117.180739 284 58ft 71kts
10-Dec-17 15:40 32.733149 -117.191627 193 20ft 1kts
10-Dec-17 15:41 32.733095 -117.193145 250 20ft 9kts
10-Dec-17 15:42 32.732813 -117.193726 231 20ft 0kts
10-Dec-17 15:43 32.732813 -117.193726 231 20ft 0kts
10-Dec-17 15:44 32.732813 -117.193726 231 20ft 0kts
10-Dec-17 15:45 32.732813 -117.193726 231 20ft 0kts
10-Dec-17 15:46 32.732813 -117.193726 231 20ft 0kts
10-Dec-17 15:47 32.732813 -117.193726 231 20ft 0kts
10-Dec-17 15:48 32.732813 -117.193726 231 20ft 0kts
10-Dec-17 15:49 32.732813 -117.193726 231 20ft 0kts
10-Dec-17 15:50 32.732813 -117.193726 231 20ft 0kts
10-Dec-17 15:51 32.732813 -117.193726 231 20ft 0kts
10-Dec-17 15:52 32.732813 -117.193726 231 20ft 0kts
10-Dec-17 15:53 32.732813 -117.193726 231 20ft 0kts

Navigation Log

Ident Type
1. KAVX Airport
2. SXC Navaid
3. AVOLS Fix
4. PACIF Fix
5. HUBRD Fix
6. OCN Navaid
7. HURSI Fix
8. CARIF Fix
9. MZB Navaid
10. KSAN Airport